Cherry Capital Airport Traverse City US
ICAO: KTVC
IATA: TVC
Category: Medium
Scheduled Services: Yes

Elevation: 624 ft
TransAlt. 18000 ft.

Airport Communications:
ATIS:119.175
MINNEAPOLIS CNTR:132.9
CTAF:124.2
GND:121.8
USCG TRAVERSE CITY:38.18
LANSING RDO:122.2
TWR:124.2
UNICOM:122.95

KTVC Zoom In..

If you have problems with the map follow the link
https://www.worldairports.se/pages/airport.php?
ICAO=KTVC

Runways:

(A) RW 10 length 6500 ft width 150 ft
---- / hdg 99

(B) RW 18 length 5378 ft width 150 ft
---- / hdg 185

(C) RW 28 length 6500 ft width 150 ft
ILS 110.70 / hdg 279

(D) RW 36 length 5378 ft width 150 ft
---- / hdg 5

Location; KTVC
Day. 18 / Time. 11.34 Zulu
* Altimeter: 29.91
* Temperature: -04° c. -24.8°f.
* Wind from: KTV° Speed C kn.
Dewpoint: -08° c.
Visibility: 1 m.
Clouds: Broken 2100 ft.
Clouds: Overcast 7000 ft.
Conditions: Light Snow.

KTVC 181134Z AUTO 14011G21KT 1 1/4SM -SN BKN021 OVC070 M04/M08 A2991 RMK AO2 PRESFR P0000 T10441078


Wind From KTV°
Speed C kn.

 
 
jpsmedia worldairports.se 2020   terms of use